ADDS METAR Data INFO
IDs: Format: Raw Decoded Include TAF

Data at: 0837 UTC 21 Oct 2017

KAIT 210835Z AUTO 16013G17KT 10SM SCT033 SCT070 16/11 A2961 RMK AO2
KAIT 210814Z AUTO 16013G18KT 10SM BKN070 16/11 A2962 RMK AO2
KAIT 210755Z AUTO 16012G17KT 10SM BKN070 16/11 A2962 RMK AO2
KAIT 210735Z AUTO 16012G17KT 10SM SCT070 16/11 A2962 RMK AO2
KAIT 210714Z AUTO 16012G19KT 10SM SCT055 16/10 A2962 RMK AO2
KAIT 210655Z AUTO 16012KT 10SM SCT065 16/09 A2963 RMK AO2
KAIT 210635Z AUTO 15016G21KT 10SM SCT065 16/09 A2963 RMK AO2
KAIT 210615Z AUTO 16013KT 10SM SCT060 BKN075 16/09 A2963 RMK AO2
KAIT 210555Z AUTO 15012G17KT 10SM SCT060 SCT075 16/09 A2964 RMK AO2
KAIT 210534Z AUTO 15012G18KT 10SM SCT060 SCT075 16/08 A2964 RMK AO2
KAIT 210515Z AUTO 16012G18KT 10SM CLR 17/08 A2964 RMK AO2
KAIT 210455Z AUTO 16011G16KT 10SM CLR 17/08 A2964 RMK AO2
KAIT 210435Z AUTO 15008KT 10SM CLR 17/08 A2964 RMK AO2
KAIT 210414Z AUTO 16009G15KT 10SM CLR 17/08 A2965 RMK AO2
KAIT 210355Z AUTO 15011G16KT 10SM CLR 17/08 A2964 RMK AO2
KAIT 210334Z AUTO 16010KT 10SM CLR 17/08 A2965 RMK AO2
KAIT 210315Z AUTO 16009G14KT 10SM CLR 17/08 A2965 RMK AO2
KAIT 210255Z AUTO 16011G17KT 10SM CLR 18/08 A2965 RMK AO2
KAIT 210234Z AUTO 17011G20KT 10SM CLR 18/08 A2965 RMK AO2
KAIT 210215Z AUTO 16010G15KT 10SM CLR 18/07 A2965 RMK AO2
KAIT 210155Z AUTO 16011G14KT 10SM CLR 18/08 A2965 RMK AO2
KAIT 210134Z AUTO 16012G17KT 10SM CLR 18/07 A2964 RMK AO2
KAIT 210115Z AUTO 16013G18KT 10SM CLR 18/08 A2964 RMK AO2
KAIT 210055Z AUTO 16013G21KT 10SM CLR 19/08 A2964 RMK AO2
KAIT 210035Z AUTO 16009G19KT 10SM CLR 19/08 A2964 RMK AO2
KAIT 210015Z AUTO 16011KT 10SM CLR 19/08 A2963 RMK AO2
KAIT 202355Z AUTO 16013G19KT 10SM CLR 19/08 A2963 RMK AO2
KAIT 202335Z AUTO 16012G18KT 10SM CLR 19/08 A2963 RMK AO2
KAIT 202314Z AUTO 16011G17KT 10SM CLR 20/08 A2963 RMK AO2
KAIT 202255Z AUTO 17012KT 10SM CLR 20/09 A2963 RMK AO2
KAIT 202235Z AUTO 16009G15KT 10SM CLR 21/09 A2964 RMK AO2
KAIT 202215Z AUTO 16011G19KT 10SM CLR 21/09 A2964 RMK AO2
KAIT 202155Z AUTO 17014G23KT 10SM CLR 22/09 A2964 RMK AO2
KAIT 202134Z AUTO 17014G23KT 10SM CLR 23/09 A2965 RMK AO2
KAIT 202115Z AUTO 17011G20KT 10SM CLR 22/09 A2965 RMK AO2
KAIT 202055Z AUTO 17014G22KT 10SM CLR 22/09 A2966 RMK AO2
KAIT 202034Z AUTO 16013G22KT 10SM CLR 22/10 A2966 RMK AO2
KAIT 202015Z AUTO 16012G19KT 10SM CLR 22/10 A2967 RMK AO2
KAIT 201955Z AUTO 17018G23KT 10SM CLR 22/09 A2967 RMK AO2
KAIT 201935Z AUTO 17014G17KT 10SM CLR 22/10 A2969 RMK AO2
KAIT 201915Z AUTO 16011G20KT 10SM CLR 21/10 A2970 RMK AO2
KAIT 201854Z AUTO 17014G19KT 10SM CLR 21/10 A2970 RMK AO2
KAIT 201835Z AUTO 17016G21KT 10SM CLR 21/10 A2971 RMK AO2
KAIT 201815Z AUTO 16013G20KT 10SM CLR 21/10 A2972 RMK AO2
KAIT 201754Z AUTO 16014G20KT 10SM CLR 20/09 A2973 RMK AO2
KAIT 201735Z AUTO 16013G18KT 10SM CLR 19/10 A2974 RMK AO2
KAIT 201714Z AUTO 16010G20KT 10SM CLR 18/09 A2975 RMK AO2
KAIT 201655Z AUTO 17013G17KT 10SM CLR 18/09 A2975 RMK AO2
KAIT 201634Z AUTO 16012G16KT 10SM CLR 17/09 A2976 RMK AO2
KAIT 201615Z AUTO 16013G16KT 10SM CLR 17/09 A2977 RMK AO2
KAIT 201555Z AUTO 16010G17KT 10SM CLR 16/09 A2977 RMK AO2
KAIT 201534Z AUTO 17008G15KT 10SM CLR 16/09 A2977 RMK AO2
KAIT 201515Z AUTO 19009G16KT 10SM CLR 15/09 A2978 RMK AO2
KAIT 201455Z AUTO 17008G16KT 10SM CLR 14/09 A2978 RMK AO2
KAIT 201435Z AUTO 17009G15KT 10SM CLR 14/09 A2978 RMK AO2
KAIT 201415Z AUTO 17009KT 10SM CLR 13/09 A2978 RMK AO2
KAIT 201354Z AUTO 16009KT 10SM CLR 12/09 A2978 RMK AO2
KAIT 201335Z AUTO 17009G14KT 10SM CLR 12/08 A2978 RMK AO2
KAIT 201314Z AUTO 16007KT 10SM CLR 11/08 A2978 RMK AO2
KAIT 201255Z AUTO 17008KT 10SM CLR 11/08 A2979 RMK AO2
KAIT 201235Z AUTO 17009G15KT 10SM CLR 11/08 A2978 RMK AO2
KAIT 201214Z AUTO 17007KT 10SM CLR 11/08 A2979 RMK AO2
KAIT 201155Z AUTO 17007KT 10SM CLR 11/08 A2979 RMK AO2
KAIT 201134Z AUTO 17008KT 10SM CLR 11/08 A2979 RMK AO2
KAIT 201115Z AUTO 17007KT 10SM CLR 11/08 A2980 RMK AO2
KAIT 201055Z AUTO 17006KT 10SM CLR 11/08 A2979 RMK AO2
KAIT 201034Z AUTO 17006KT 10SM CLR 11/07 A2980 RMK AO2
KAIT 201015Z AUTO 16006KT 10SM CLR 11/07 A2980 RMK AO2
KAIT 200954Z AUTO 17007KT 10SM CLR 11/07 A2980 RMK AO2
KAIT 200935Z AUTO 18006KT 10SM CLR 11/07 A2981 RMK AO2
KAIT 200915Z AUTO 17006KT 10SM CLR 11/07 A2981 RMK AO2
KAIT 200855Z AUTO 17006KT 10SM CLR 11/07 A2981 RMK AO2
KAIT 200835Z AUTO 16006KT 10SM CLR 11/07 A2982 RMK AO2
KAIT 200814Z AUTO 16005KT 10SM CLR 11/06 A2982 RMK AO2
KAIT 200755Z AUTO 17005KT 10SM CLR 12/06 A2983 RMK AO2
KAIT 200735Z AUTO 17005KT 10SM CLR 12/06 A2983 RMK AO2
KAIT 200715Z AUTO 17006KT 10SM CLR 12/06 A2984 RMK AO2
KAIT 200655Z AUTO 17007KT 10SM CLR 12/05 A2984 RMK AO2
KAIT 200634Z AUTO 17006KT 10SM CLR 12/05 A2985 RMK AO2
KAIT 200615Z AUTO 17006KT 10SM CLR 12/04 A2985 RMK AO2
KAIT 200555Z AUTO 17007KT 10SM CLR 13/04 A2985 RMK AO2
KAIT 200535Z AUTO 17008KT 10SM CLR 13/04 A2985 RMK AO2
KAIT 200515Z AUTO 17008KT 10SM CLR 13/04 A2985 RMK AO2
KAIT 200455Z AUTO 18010KT 10SM CLR 13/04 A2986 RMK AO2
KAIT 200434Z AUTO 18008KT 10SM CLR 14/04 A2986 RMK AO2
KAIT 200415Z AUTO 17009KT 10SM CLR 14/04 A2986 RMK AO2
KAIT 200355Z AUTO 17008KT 10SM CLR 14/04 A2986 RMK AO2
KAIT 200334Z AUTO 17008KT 10SM CLR 14/04 A2986 RMK AO2
KAIT 200315Z AUTO 17007KT 10SM CLR 14/03 A2987 RMK AO2
KAIT 200255Z AUTO 18007KT 10SM CLR 13/03 A2987 RMK AO2
KAIT 200235Z AUTO 17006KT 10SM CLR 12/03 A2987 RMK AO2
KAIT 200215Z AUTO 17006KT 10SM CLR 10/03 A2987 RMK AO2
KAIT 200154Z AUTO 15003KT 10SM CLR 07/02 A2988 RMK AO2
KAIT 200135Z AUTO 00000KT 10SM CLR 07/03 A2988 RMK AO2
KAIT 200115Z AUTO 13003KT 10SM CLR 09/03 A2988 RMK AO2
KAIT 200054Z AUTO 13003KT 10SM CLR 11/02 A2988 RMK AO2
KAIT 200035Z AUTO 15003KT 10SM CLR 13/02 A2988 RMK AO2
KAIT 200015Z AUTO 16004KT 10SM CLR 14/02 A2988 RMK AO2
KAIT 192355Z AUTO 16004KT 10SM CLR 15/02 A2988 RMK AO2
KAIT 192335Z AUTO 16006KT 10SM CLR 16/01 A2988 RMK AO2
KAIT 192314Z AUTO 17005KT 10SM CLR 17/01 A2988 RMK AO2
KAIT 192255Z AUTO 18008KT 10SM CLR 18/01 A2988 RMK AO2
KAIT 192235Z AUTO 19011G15KT 10SM CLR 19/01 A2988 RMK AO2
KAIT 192215Z AUTO 19009KT 10SM CLR 19/01 A2988 RMK AO2
KAIT 192155Z AUTO 17008KT 10SM CLR 20/02 A2988 RMK AO2
KAIT 192134Z AUTO 19007KT 10SM CLR 20/02 A2989 RMK AO2
KAIT 192115Z AUTO 18007KT 10SM CLR 19/02 A2989 RMK AO2
KAIT 192055Z AUTO 17012KT 10SM CLR 20/02 A2989 RMK AO2